Weather observations for the past three days for
Nadi International Airport
Imperial (Metric)
Date Time (+12) Wind (mph) Vis. (mi.) Weather Sky Cond. Temperature (ºF) Relative Humidity Wind Chill (°F) Heat Index (°F) Pressure Precipitation (in)
Air Dwpt 6 hour altimeter (in) sea level (mb) 1 hr 3 hr 6 hr
Max. Min.
04 08:00 Calm 0.00 A Few Clouds FEW030 75.2 68 78% 76 0 0.0
04 07:00 S 5 0.00 Partly Cloudy FEW030 SCT050 69.8 68 94% 0 0.0
04 06:00 S 5 0.00 Partly Cloudy FEW030 SCT050 71.6 66.2 83% 0 0.0
04 05:00 Calm 0.00 A Few Clouds FEW030 69.8 66.2 88% 0 0.0
04 04:00 SE 5 0.00 A Few Clouds FEW030 69.8 66.2 88% 0 0.0
04 03:00 E 5 0.00 A Few Clouds FEW030 71.6 66.2 83% 0 0.0
04 02:00 Calm 0.00 A Few Clouds FEW030 71.6 68 88% 0 0.0
04 01:00 SE 6 0.00 A Few Clouds FEW030 71.6 66.2 83% 0 0.0
04 00:00 SE 5 0.00 A Few Clouds FEW030 71.6 66.2 83% 0 0.0
03 23:00 SE 5 0.00 A Few Clouds FEW030 73.4 68 83% 0 0.0
03 22:00 SE 5 0.00 A Few Clouds FEW030 73.4 68 83% 0 0.0
03 21:00 S 6 0.00 Partly Cloudy FEW030 SCT300 75.2 68 78% 76 0 0.0
03 20:00 Calm 0.00 Partly Cloudy SCT028 SCT048 77 69.8 79% 79 0 0.0
03 19:00 NW 3 0.00 Mostly Cloudy SCT028 BKN048 77 69.8 79% 79 0 0.0
03 18:00 NW 8 0.00 Mostly Cloudy SCT026 BKN048 78.8 69.8 74% 81 0 0.0
03 17:00 NW 10 0.00 Partly Cloudy SCT026 SCT120 78.8 69.8 74% 81 0 0.0
03 16:00 NW 13 0.00 Mostly Cloudy SCT028 BKN048 80.6 69.8 70% 84 0 0.0
03 15:00 NW 15 0.00 Mostly Cloudy SCT028 BKN048 82.4 68 62% 85 0 0.0
03 14:00 NW 15 0.00 Partly Cloudy SCT028 SCT048 84.2 68 58% 87 0 0.0
03 13:00 NW 14 0.00 Mostly Cloudy SCT028 BKN048 82.4 66.2 58% 85 0 0.0
03 12:00 NW 13 0.00 Partly Cloudy SCT030 82.4 66.2 58% 85 0 0.0
03 11:00 E 8 0.00 Partly Cloudy FEW030 SCT050 86 64.4 49% 87 0 0.0
03 10:00 S 8 0.00 Partly Cloudy FEW030 SCT050 82.4 66.2 58% 85 0 0.0
03 09:00 SE 9 0.00 Partly Cloudy FEW030 SCT050 78.8 64.4 61% 81 0 0.0
03 08:00 SE 9 0.00 Mostly Cloudy SCT028 BKN048 75.2 64.4 69% 77 0 0.0
03 07:00 SE 8 0.00 Mostly Cloudy SCT028 BKN048 73.4 62.6 69% 0 0.0
03 06:00 S 9 0.00 Mostly Cloudy SCT028 BKN048 73.4 62.6 69% 0 0.0
03 05:00 S 8 0.00 Mostly Cloudy SCT028 BKN048 71.6 62.6 73% 0 0.0
03 04:00 SE 8 0.00 Mostly Cloudy SCT028 BKN048 71.6 62.6 73% 0 0.0
03 03:00 SE 9 0.00 Mostly Cloudy SCT028 BKN048 71.6 62.6 73% 0 0.0
03 02:00 SE 9 0.00 Mostly Cloudy SCT028 BKN048 71.6 62.6 73% 0 0.0
03 01:00 SE 7 0.00 Mostly Cloudy SCT028 BKN048 73.4 62.6 69% 0 0.0
03 00:00 SE 7 0.00 Mostly Cloudy SCT028 BKN048 71.6 62.6 73% 0 0.0
02 23:00 SE 13 0.00 Mostly Cloudy SCT028 BKN048 73.4 62.6 69% 0 0.0
02 22:00 SE 10 0.00 Partly Cloudy SCT028 SCT048 71.6 62.6 73% 0 0.0
02 21:00 SE 12 0.00 Partly Cloudy SCT028 SCT048 73.4 62.6 69% 0 0.0
02 20:00 SE 10 0.00 Partly Cloudy FEW028 SCT048 73.4 62.6 69% 0 0.0
02 19:00 SE 10 0.00 Partly Cloudy FEW028 SCT048 75.2 62.6 65% 77 0 0.0
02 18:00 S 6 0.00 Partly Cloudy FEW028 SCT048 75.2 62.6 65% 77 0 0.0
02 17:00 SE 10 0.00 Mostly Cloudy SCT027 BKN048 78.8 62.6 58% 80 0 0.0
02 16:00 W 5 0.00 Mostly Cloudy SCT028 BKN048 78.8 66.2 65% 81 0 0.0
02 15:00 E 3 0.00 Partly Cloudy SCT028 SCT048 80.6 64.4 58% 82 0 0.0
02 14:00 N 8 0.00 Mostly Cloudy SCT028 BKN048 80.6 64.4 58% 82 0 0.0
02 13:00 E 8 0.00 Mostly Cloudy SCT028 SCT050 BKN120 82.4 64.4 55% 84 0 0.0
02 12:00 SE 12 0.00 Mostly Cloudy SCT028 SCT050 BKN120 84.2 64.4 51% 86 0 0.0
02 11:00 SE 12 0.00 Mostly Cloudy SCT028 SCT050 BKN120 80.6 62.6 54% 82 0 0.0
02 10:00 SE 14 0.00 Mostly Cloudy SCT028 SCT050 BKN120 78.8 62.6 58% 80 0 0.0
02 09:00 SE 15 0.00 Mostly Cloudy SCT028 BKN050 77 62.6 61% 79 0 0.0
02 08:00 SE 10 0.00 Mostly Cloudy SCT028 BKN050 75.2 62.6 65% 77 0 0.0
02 07:00 SE 9 0.00 Mostly Cloudy BKN028 BKN050 73.4 62.6 69% 0 0.0
02 06:00 SE 12 0.00 Mostly Cloudy SCT028 BKN050 71.6 62.6 73% 0 0.0
02 05:00 SE 9 0.00 Partly Cloudy SCT028 SCT050 71.6 62.6 73% 0 0.0
02 04:00 SE 9 0.00 Mostly Cloudy SCT028 BKN050 71.6 60.8 69% 0 0.0
02 03:00 SE 10 0.00 Mostly Cloudy SCT028 BKN050 71.6 60.8 69% 0 0.0
02 02:00 SE 8 0.00 Mostly Cloudy SCT028 BKN050 71.6 60.8 69% 0 0.0
02 01:00 SE 10 0.00 Mostly Cloudy SCT028 BKN050 71.6 60.8 69% 0 0.0
02 00:00 SE 12 0.00 Mostly Cloudy SCT028 BKN050 71.6 60.8 69% 0 0.0
01 23:00 SE 8 0.00 Mostly Cloudy SCT028 BKN050 71.6 60.8 69% 0 0.0
01 22:00 SE 10 0.00 Mostly Cloudy SCT028 BKN050 71.6 60.8 69% 0 0.0
01 21:00 SE 12 0.00 Mostly Cloudy SCT028 BKN050 71.6 60.8 69% 0 0.0
01 20:00 SE 12 0.00 Partly Cloudy FEW030 SCT050 71.6 62.6 73% 0 0.0
01 19:00 SE 12 0.00 Mostly Cloudy FEW030 SCT050 BKN120 73.4 62.6 69% 0 0.0
01 18:00 SE 12 0.00 Mostly Cloudy SCT028 SCT048 BKN120 75.2 64.4 69% 77 0 0.0
01 17:00 SE 13 0.00 Mostly Cloudy SCT028 SCT048 BKN120 78.8 64.4 61% 81 0 0.0
01 16:00 SE 10 0.00 Mostly Cloudy SCT028 SCT048 BKN120 78.8 66.2 65% 81 0 0.0
01 15:00 NW 9 0.00 Mostly Cloudy SCT028 BKN048 80.6 66.2 62% 83 0 0.0
01 14:00 NW 10 0.00 Partly Cloudy SCT028 SCT050 80.6 66.2 62% 83 0 0.0
01 13:00 NW 14 0.00 Partly Cloudy SCT028 SCT050 80.6 66.2 62% 83 0 0.0
01 12:00 NW 14 0.00 A Few Clouds FEW030 82.4 68 62% 85 0 0.0
01 11:00 E 6 0.00 A Few Clouds FEW030 82.4 62.6 51% 83 0 0.0
01 10:00 E 9 0.00 A Few Clouds FEW030 80.6 62.6 54% 82 0 0.0
01 09:00 SE 12 0.00 A Few Clouds FEW030 78.8 64.4 61% 81 0 0.0
Date Time (+12) Wind (mph) Vis. (mi.) Weather Sky Cond. Air Dwpt Max. Min. Relative Humidity Wind Chill (°F) Heat Index (°F) altimeter (in) sea level (mb) 1 hr 3 hr 6 hr
6 hour
Temperature (ºF) Pressure Precipitation (in)